sensor_id;sensor_type;location;lat;lon;timestamp;temperature;humidity
43679;DHT22;29279;50.858;4.392;2023-09-08T00:00:56;25.40;97.40
43679;DHT22;29279;50.858;4.392;2023-09-08T00:03:22;25.30;97.40
43679;DHT22;29279;50.858;4.392;2023-09-08T00:05:49;25.20;97.70
43679;DHT22;29279;50.858;4.392;2023-09-08T00:08:15;25.30;97.90
43679;DHT22;29279;50.858;4.392;2023-09-08T00:10:41;25.20;98.00
43679;DHT22;29279;50.858;4.392;2023-09-08T00:13:06;25.20;98.10
43679;DHT22;29279;50.858;4.392;2023-09-08T00:15:36;25.10;98.40
43679;DHT22;29279;50.858;4.392;2023-09-08T00:18:01;25.00;98.50
43679;DHT22;29279;50.858;4.392;2023-09-08T00:20:27;24.90;98.90
43679;DHT22;29279;50.858;4.392;2023-09-08T00:22:52;24.70;99.30
43679;DHT22;29279;50.858;4.392;2023-09-08T00:25:18;24.50;99.90
43679;DHT22;29279;50.858;4.392;2023-09-08T00:27:44;24.50;99.90
43679;DHT22;29279;50.858;4.392;2023-09-08T00:30:10;24.50;99.90
43679;DHT22;29279;50.858;4.392;2023-09-08T00:32:36;24.50;99.90
43679;DHT22;29279;50.858;4.392;2023-09-08T00:35:01;24.40;99.90
43679;DHT22;29279;50.858;4.392;2023-09-08T00:37:27;24.40;99.90
43679;DHT22;29279;50.858;4.392;2023-09-08T00:39:53;24.50;99.90
43679;DHT22;29279;50.858;4.392;2023-09-08T00:42:18;24.50;99.90
43679;DHT22;29279;50.858;4.392;2023-09-08T00:44:44;24.50;99.90
43679;DHT22;29279;50.858;4.392;2023-09-08T00:47:10;24.50;99.90
43679;DHT22;29279;50.858;4.392;2023-09-08T00:49:35;24.40;99.90
43679;DHT22;29279;50.858;4.392;2023-09-08T00:52:01;24.50;99.90
43679;DHT22;29279;50.858;4.392;2023-09-08T00:54:27;24.50;99.90
43679;DHT22;29279;50.858;4.392;2023-09-08T00:56:56;24.40;99.90
43679;DHT22;29279;50.858;4.392;2023-09-08T00:59:24;24.50;99.90
43679;DHT22;29279;50.858;4.392;2023-09-08T01:01:51;24.50;99.90
43679;DHT22;29279;50.858;4.392;2023-09-08T01:04:17;24.50;99.90
43679;DHT22;29279;50.858;4.392;2023-09-08T01:06:44;24.50;99.90
43679;DHT22;29279;50.858;4.392;2023-09-08T01:09:11;24.50;99.90
43679;DHT22;29279;50.858;4.392;2023-09-08T01:11:37;24.50;99.90
43679;DHT22;29279;50.858;4.392;2023-09-08T01:14:02;24.50;99.90
43679;DHT22;29279;50.858;4.392;2023-09-08T01:16:28;24.50;99.90
43679;DHT22;29279;50.858;4.392;2023-09-08T01:18:54;24.50;99.90
43679;DHT22;29279;50.858;4.392;2023-09-08T01:27:01;24.50;99.90
43679;DHT22;29279;50.858;4.392;2023-09-08T01:29:28;24.60;99.90
43679;DHT22;29279;50.858;4.392;2023-09-08T01:31:55;24.50;99.90
43679;DHT22;29279;50.858;4.392;2023-09-08T01:34:21;24.50;99.90
43679;DHT22;29279;50.858;4.392;2023-09-08T01:36:47;24.50;99.90
43679;DHT22;29279;50.858;4.392;2023-09-08T01:39:13;24.50;99.90
43679;DHT22;29279;50.858;4.392;2023-09-08T01:41:39;24.60;99.90
43679;DHT22;29279;50.858;4.392;2023-09-08T01:44:05;24.60;99.90
43679;DHT22;29279;50.858;4.392;2023-09-08T01:46:34;24.70;99.90
43679;DHT22;29279;50.858;4.392;2023-09-08T01:48:59;24.70;99.90
43679;DHT22;29279;50.858;4.392;2023-09-08T01:51:25;24.70;99.90
43679;DHT22;29279;50.858;4.392;2023-09-08T01:53:51;24.70;99.90
43679;DHT22;29279;50.858;4.392;2023-09-08T01:56:16;24.70;99.90
43679;DHT22;29279;50.858;4.392;2023-09-08T01:58:42;24.60;99.90
43679;DHT22;29279;50.858;4.392;2023-09-08T02:01:08;24.60;99.90
43679;DHT22;29279;50.858;4.392;2023-09-08T02:03:33;24.60;99.90
43679;DHT22;29279;50.858;4.392;2023-09-08T02:05:59;24.50;99.90
43679;DHT22;29279;50.858;4.392;2023-09-08T02:08:25;24.40;99.90
43679;DHT22;29279;50.858;4.392;2023-09-08T02:10:50;24.40;99.90
43679;DHT22;29279;50.858;4.392;2023-09-08T02:13:16;24.30;99.90
43679;DHT22;29279;50.858;4.392;2023-09-08T02:15:42;24.40;99.90
43679;DHT22;29279;50.858;4.392;2023-09-08T02:18:08;24.40;99.90
43679;DHT22;29279;50.858;4.392;2023-09-08T02:20:33;24.30;99.90
43679;DHT22;29279;50.858;4.392;2023-09-08T02:23:04;24.30;99.90
43679;DHT22;29279;50.858;4.392;2023-09-08T02:25:30;24.30;99.90
43679;DHT22;29279;50.858;4.392;2023-09-08T02:27:56;24.30;99.90
43679;DHT22;29279;50.858;4.392;2023-09-08T02:30:21;24.40;99.90
43679;DHT22;29279;50.858;4.392;2023-09-08T02:32:47;24.30;99.90
43679;DHT22;29279;50.858;4.392;2023-09-08T02:35:13;24.30;99.90
43679;DHT22;29279;50.858;4.392;2023-09-08T02:37:38;24.30;99.90
43679;DHT22;29279;50.858;4.392;2023-09-08T02:40:05;24.20;99.90
43679;DHT22;29279;50.858;4.392;2023-09-08T02:42:31;24.30;99.90
43679;DHT22;29279;50.858;4.392;2023-09-08T02:44:57;24.20;99.90
43679;DHT22;29279;50.858;4.392;2023-09-08T02:47:22;24.20;99.90
43679;DHT22;29279;50.858;4.392;2023-09-08T02:49:48;24.10;99.90
43679;DHT22;29279;50.858;4.392;2023-09-08T02:52:14;24.10;99.90
43679;DHT22;29279;50.858;4.392;2023-09-08T02:54:40;24.00;99.90
43679;DHT22;29279;50.858;4.392;2023-09-08T02:57:05;24.00;99.90
43679;DHT22;29279;50.858;4.392;2023-09-08T02:59:31;24.00;99.90
43679;DHT22;29279;50.858;4.392;2023-09-08T03:01:57;24.00;99.90
43679;DHT22;29279;50.858;4.392;2023-09-08T03:04:24;24.00;99.90
43679;DHT22;29279;50.858;4.392;2023-09-08T03:06:50;24.00;99.90
43679;DHT22;29279;50.858;4.392;2023-09-08T03:09:15;24.00;99.90
43679;DHT22;29279;50.858;4.392;2023-09-08T03:11:41;24.00;99.90
43679;DHT22;29279;50.858;4.392;2023-09-08T03:14:06;24.10;99.90
43679;DHT22;29279;50.858;4.392;2023-09-08T03:16:32;24.10;99.90
43679;DHT22;29279;50.858;4.392;2023-09-08T03:18:58;24.00;99.90
43679;DHT22;29279;50.858;4.392;2023-09-08T03:21:24;24.10;99.90
43679;DHT22;29279;50.858;4.392;2023-09-08T03:23:49;24.00;99.90
43679;DHT22;29279;50.858;4.392;2023-09-08T03:26:15;23.90;99.90
43679;DHT22;29279;50.858;4.392;2023-09-08T03:28:42;23.80;99.90
43679;DHT22;29279;50.858;4.392;2023-09-08T03:31:08;23.80;99.90
43679;DHT22;29279;50.858;4.392;2023-09-08T03:33:34;23.90;99.90
43679;DHT22;29279;50.858;4.392;2023-09-08T03:36:00;24.00;99.90
43679;DHT22;29279;50.858;4.392;2023-09-08T03:38:26;24.00;99.90
43679;DHT22;29279;50.858;4.392;2023-09-08T03:40:52;24.00;99.90
43679;DHT22;29279;50.858;4.392;2023-09-08T03:43:18;24.00;99.90
43679;DHT22;29279;50.858;4.392;2023-09-08T03:45:43;23.90;99.90
43679;DHT22;29279;50.858;4.392;2023-09-08T03:48:09;23.80;99.90
43679;DHT22;29279;50.858;4.392;2023-09-08T03:50:35;23.90;99.90
43679;DHT22;29279;50.858;4.392;2023-09-08T03:53:01;23.90;99.90
43679;DHT22;29279;50.858;4.392;2023-09-08T03:55:27;23.90;99.90
43679;DHT22;29279;50.858;4.392;2023-09-08T03:57:52;23.90;99.90
43679;DHT22;29279;50.858;4.392;2023-09-08T04:00:19;23.90;99.90
43679;DHT22;29279;50.858;4.392;2023-09-08T04:02:48;23.90;99.90
43679;DHT22;29279;50.858;4.392;2023-09-08T04:05:15;23.90;99.90
43679;DHT22;29279;50.858;4.392;2023-09-08T04:07:41;23.90;99.90
43679;DHT22;29279;50.858;4.392;2023-09-08T04:10:07;23.90;99.90
43679;DHT22;29279;50.858;4.392;2023-09-08T04:12:33;23.80;99.90
43679;DHT22;29279;50.858;4.392;2023-09-08T04:14:58;23.80;99.90
43679;DHT22;29279;50.858;4.392;2023-09-08T04:17:24;23.70;99.90
43679;DHT22;29279;50.858;4.392;2023-09-08T04:19:50;23.60;99.90
43679;DHT22;29279;50.858;4.392;2023-09-08T04:22:15;23.70;99.90
43679;DHT22;29279;50.858;4.392;2023-09-08T04:24:41;23.70;99.90
43679;DHT22;29279;50.858;4.392;2023-09-08T04:27:06;23.70;99.90
43679;DHT22;29279;50.858;4.392;2023-09-08T04:29:34;23.70;99.90
43679;DHT22;29279;50.858;4.392;2023-09-08T04:32:00;23.70;99.90
43679;DHT22;29279;50.858;4.392;2023-09-08T04:34:25;23.70;99.90
43679;DHT22;29279;50.858;4.392;2023-09-08T04:36:51;23.60;99.90
43679;DHT22;29279;50.858;4.392;2023-09-08T04:39:17;23.60;99.90
43679;DHT22;29279;50.858;4.392;2023-09-08T04:41:42;23.50;99.90
43679;DHT22;29279;50.858;4.392;2023-09-08T04:44:08;23.40;99.90
43679;DHT22;29279;50.858;4.392;2023-09-08T04:46:35;23.40;99.90
43679;DHT22;29279;50.858;4.392;2023-09-08T04:49:01;23.40;99.90
43679;DHT22;29279;50.858;4.392;2023-09-08T04:51:27;23.50;99.90
43679;DHT22;29279;50.858;4.392;2023-09-08T04:53:52;23.50;99.90
43679;DHT22;29279;50.858;4.392;2023-09-08T04:56:18;23.50;99.90
43679;DHT22;29279;50.858;4.392;2023-09-08T04:58:43;23.60;99.90
43679;DHT22;29279;50.858;4.392;2023-09-08T05:01:09;23.60;99.90
43679;DHT22;29279;50.858;4.392;2023-09-08T05:03:35;23.60;99.90
43679;DHT22;29279;50.858;4.392;2023-09-08T05:06:00;23.60;99.90
43679;DHT22;29279;50.858;4.392;2023-09-08T05:08:26;23.60;99.90
43679;DHT22;29279;50.858;4.392;2023-09-08T05:10:52;23.50;99.90
43679;DHT22;29279;50.858;4.392;2023-09-08T05:13:18;23.50;99.90
43679;DHT22;29279;50.858;4.392;2023-09-08T05:15:43;23.50;99.90
43679;DHT22;29279;50.858;4.392;2023-09-08T05:18:13;23.50;99.90
43679;DHT22;29279;50.858;4.392;2023-09-08T05:20:39;23.50;99.90
43679;DHT22;29279;50.858;4.392;2023-09-08T05:23:05;23.50;99.90
43679;DHT22;29279;50.858;4.392;2023-09-08T05:25:31;23.50;99.90
43679;DHT22;29279;50.858;4.392;2023-09-08T05:27:56;23.60;99.90
43679;DHT22;29279;50.858;4.392;2023-09-08T05:30:22;23.60;99.90
43679;DHT22;29279;50.858;4.392;2023-09-08T05:32:48;23.60;99.90
43679;DHT22;29279;50.858;4.392;2023-09-08T05:35:13;23.50;99.90
43679;DHT22;29279;50.858;4.392;2023-09-08T05:37:39;23.60;99.90
43679;DHT22;29279;50.858;4.392;2023-09-08T05:40:06;23.60;99.90
43679;DHT22;29279;50.858;4.392;2023-09-08T05:42:32;23.60;99.90
43679;DHT22;29279;50.858;4.392;2023-09-08T05:44:57;23.70;99.90
43679;DHT22;29279;50.858;4.392;2023-09-08T05:47:23;23.60;99.90
43679;DHT22;29279;50.858;4.392;2023-09-08T05:49:49;23.50;99.90
43679;DHT22;29279;50.858;4.392;2023-09-08T05:52:14;23.50;99.90
43679;DHT22;29279;50.858;4.392;2023-09-08T05:54:40;23.50;99.90
43679;DHT22;29279;50.858;4.392;2023-09-08T05:57:06;23.60;99.90
43679;DHT22;29279;50.858;4.392;2023-09-08T05:59:31;23.60;99.90
43679;DHT22;29279;50.858;4.392;2023-09-08T06:01:57;23.70;99.90
43679;DHT22;29279;50.858;4.392;2023-09-08T06:04:23;23.60;99.90
43679;DHT22;29279;50.858;4.392;2023-09-08T06:06:49;23.70;99.90
43679;DHT22;29279;50.858;4.392;2023-09-08T06:09:14;23.70;99.90
43679;DHT22;29279;50.858;4.392;2023-09-08T06:11:42;23.70;99.90
43679;DHT22;29279;50.858;4.392;2023-09-08T06:14:08;23.80;99.90
43679;DHT22;29279;50.858;4.392;2023-09-08T06:16:33;23.70;99.90
43679;DHT22;29279;50.858;4.392;2023-09-08T06:19:01;23.80;99.90
43679;DHT22;29279;50.858;4.392;2023-09-08T06:21:28;23.80;99.90
43679;DHT22;29279;50.858;4.392;2023-09-08T06:23:54;23.80;99.90
43679;DHT22;29279;50.858;4.392;2023-09-08T06:26:19;23.80;99.90
43679;DHT22;29279;50.858;4.392;2023-09-08T06:28:45;23.90;99.90
43679;DHT22;29279;50.858;4.392;2023-09-08T06:31:11;23.90;99.90
43679;DHT22;29279;50.858;4.392;2023-09-08T06:33:36;24.00;99.90
43679;DHT22;29279;50.858;4.392;2023-09-08T06:36:02;23.90;99.90
43679;DHT22;29279;50.858;4.392;2023-09-08T06:38:28;24.00;99.90
43679;DHT22;29279;50.858;4.392;2023-09-08T06:40:56;24.10;99.90
43679;DHT22;29279;50.858;4.392;2023-09-08T06:43:22;24.20;99.90
43679;DHT22;29279;50.858;4.392;2023-09-08T06:45:48;24.30;99.90
43679;DHT22;29279;50.858;4.392;2023-09-08T06:48:15;24.40;99.90
43679;DHT22;29279;50.858;4.392;2023-09-08T06:50:41;24.40;99.90
43679;DHT22;29279;50.858;4.392;2023-09-08T06:53:06;24.50;99.90
43679;DHT22;29279;50.858;4.392;2023-09-08T06:55:32;24.50;99.90
43679;DHT22;29279;50.858;4.392;2023-09-08T06:57:58;24.50;99.90
43679;DHT22;29279;50.858;4.392;2023-09-08T07:00:23;24.50;99.90
43679;DHT22;29279;50.858;4.392;2023-09-08T07:02:50;24.50;99.90
43679;DHT22;29279;50.858;4.392;2023-09-08T07:05:16;24.50;99.90
43679;DHT22;29279;50.858;4.392;2023-09-08T07:07:42;24.60;99.90
43679;DHT22;29279;50.858;4.392;2023-09-08T07:10:08;24.80;99.90
43679;DHT22;29279;50.858;4.392;2023-09-08T07:12:34;24.80;99.90
43679;DHT22;29279;50.858;4.392;2023-09-08T07:15:00;24.80;99.90
43679;DHT22;29279;50.858;4.392;2023-09-08T07:17:26;24.90;99.90
43679;DHT22;29279;50.858;4.392;2023-09-08T07:19:52;24.90;99.90
43679;DHT22;29279;50.858;4.392;2023-09-08T07:22:17;24.90;99.90
43679;DHT22;29279;50.858;4.392;2023-09-08T07:24:44;24.90;99.90
43679;DHT22;29279;50.858;4.392;2023-09-08T07:27:10;25.10;99.90
43679;DHT22;29279;50.858;4.392;2023-09-08T07:29:38;25.10;99.90
43679;DHT22;29279;50.858;4.392;2023-09-08T07:32:04;25.10;99.90
43679;DHT22;29279;50.858;4.392;2023-09-08T07:34:29;25.20;99.90
43679;DHT22;29279;50.858;4.392;2023-09-08T07:36:55;25.30;99.90
43679;DHT22;29279;50.858;4.392;2023-09-08T07:39:20;25.40;99.90
43679;DHT22;29279;50.858;4.392;2023-09-08T07:41:46;25.50;99.90
43679;DHT22;29279;50.858;4.392;2023-09-08T07:44:12;25.50;99.90
43679;DHT22;29279;50.858;4.392;2023-09-08T07:46:38;25.60;99.90
43679;DHT22;29279;50.858;4.392;2023-09-08T07:49:04;25.60;99.90
43679;DHT22;29279;50.858;4.392;2023-09-08T07:51:29;25.70;99.90
43679;DHT22;29279;50.858;4.392;2023-09-08T07:53:56;25.90;99.90
43679;DHT22;29279;50.858;4.392;2023-09-08T07:56:22;26.00;99.90
43679;DHT22;29279;50.858;4.392;2023-09-08T07:58:47;26.20;99.90
43679;DHT22;29279;50.858;4.392;2023-09-08T08:01:14;26.30;99.90
43679;DHT22;29279;50.858;4.392;2023-09-08T08:03:40;26.40;99.90
43679;DHT22;29279;50.858;4.392;2023-09-08T08:06:06;26.40;99.90
43679;DHT22;29279;50.858;4.392;2023-09-08T08:08:32;26.50;99.90
43679;DHT22;29279;50.858;4.392;2023-09-08T08:10:59;26.60;99.90
43679;DHT22;29279;50.858;4.392;2023-09-08T08:13:25;26.60;99.90
43679;DHT22;29279;50.858;4.392;2023-09-08T08:15:50;26.70;99.90
43679;DHT22;29279;50.858;4.392;2023-09-08T08:18:16;26.80;99.90
43679;DHT22;29279;50.858;4.392;2023-09-08T08:20:42;27.00;99.90
43679;DHT22;29279;50.858;4.392;2023-09-08T08:23:08;27.10;99.70
43679;DHT22;29279;50.858;4.392;2023-09-08T08:25:34;27.10;99.60
43679;DHT22;29279;50.858;4.392;2023-09-08T08:28:00;27.20;99.60
43679;DHT22;29279;50.858;4.392;2023-09-08T08:30:26;27.20;99.30
43679;DHT22;29279;50.858;4.392;2023-09-08T08:32:52;27.30;99.10
43679;DHT22;29279;50.858;4.392;2023-09-08T08:35:19;27.50;99.10
43679;DHT22;29279;50.858;4.392;2023-09-08T08:37:45;27.70;98.60
43679;DHT22;29279;50.858;4.392;2023-09-08T08:40:11;27.90;98.40
43679;DHT22;29279;50.858;4.392;2023-09-08T08:42:38;28.20;98.20
43679;DHT22;29279;50.858;4.392;2023-09-08T08:45:05;28.40;97.90
43679;DHT22;29279;50.858;4.392;2023-09-08T08:47:31;28.60;97.60
43679;DHT22;29279;50.858;4.392;2023-09-08T08:49:58;28.80;97.30
43679;DHT22;29279;50.858;4.392;2023-09-08T08:52:25;28.90;97.10
43679;DHT22;29279;50.858;4.392;2023-09-08T08:54:51;29.10;96.80
43679;DHT22;29279;50.858;4.392;2023-09-08T08:57:17;29.40;96.40
43679;DHT22;29279;50.858;4.392;2023-09-08T08:59:43;29.80;96.00
43679;DHT22;29279;50.858;4.392;2023-09-08T09:02:11;30.20;95.60
43679;DHT22;29279;50.858;4.392;2023-09-08T09:04:37;30.50;95.40
43679;DHT22;29279;50.858;4.392;2023-09-08T09:07:05;31.00;94.90
43679;DHT22;29279;50.858;4.392;2023-09-08T09:09:32;31.30;94.30
43679;DHT22;29279;50.858;4.392;2023-09-08T09:11:57;31.70;93.80
43679;DHT22;29279;50.858;4.392;2023-09-08T09:14:23;32.10;93.20
43679;DHT22;29279;50.858;4.392;2023-09-08T09:16:49;32.50;92.60
43679;DHT22;29279;50.858;4.392;2023-09-08T09:19:20;33.00;92.10
43679;DHT22;29279;50.858;4.392;2023-09-08T09:21:51;33.40;91.70
43679;DHT22;29279;50.858;4.392;2023-09-08T09:26:55;34.70;90.50
43679;DHT22;29279;50.858;4.392;2023-09-08T09:29:21;35.40;89.90
43679;DHT22;29279;50.858;4.392;2023-09-08T09:31:54;36.00;88.00
43679;DHT22;29279;50.858;4.392;2023-09-08T09:34:21;36.50;86.30
43679;DHT22;29279;50.858;4.392;2023-09-08T09:36:49;36.60;85.60
43679;DHT22;29279;50.858;4.392;2023-09-08T09:39:22;37.10;84.80
43679;DHT22;29279;50.858;4.392;2023-09-08T09:41:53;37.90;83.50
43679;DHT22;29279;50.858;4.392;2023-09-08T09:44:19;38.10;81.90
43679;DHT22;29279;50.858;4.392;2023-09-08T09:46:47;38.20;81.30
43679;DHT22;29279;50.858;4.392;2023-09-08T09:49:13;38.50;80.50
43679;DHT22;29279;50.858;4.392;2023-09-08T09:51:43;38.90;80.20
43679;DHT22;29279;50.858;4.392;2023-09-08T09:54:09;39.50;79.20
43679;DHT22;29279;50.858;4.392;2023-09-08T09:56:37;40.40;77.10
43679;DHT22;29279;50.858;4.392;2023-09-08T09:59:03;41.10;75.90
43679;DHT22;29279;50.858;4.392;2023-09-08T10:01:31;41.70;74.40
43679;DHT22;29279;50.858;4.392;2023-09-08T10:03:58;42.20;73.00
43679;DHT22;29279;50.858;4.392;2023-09-08T10:06:25;42.70;72.10
43679;DHT22;29279;50.858;4.392;2023-09-08T10:08:51;43.20;71.20
43679;DHT22;29279;50.858;4.392;2023-09-08T10:11:21;43.40;70.40
43679;DHT22;29279;50.858;4.392;2023-09-08T10:13:47;43.30;70.10
43679;DHT22;29279;50.858;4.392;2023-09-08T10:16:16;43.70;69.40
43679;DHT22;29279;50.858;4.392;2023-09-08T10:18:46;44.10;68.90
43679;DHT22;29279;50.858;4.392;2023-09-08T10:21:13;44.60;67.70
43679;DHT22;29279;50.858;4.392;2023-09-08T10:23:44;44.60;67.30
43679;DHT22;29279;50.858;4.392;2023-09-08T10:26:26;44.60;66.90
43679;DHT22;29279;50.858;4.392;2023-09-08T10:28:54;44.80;66.40
43679;DHT22;29279;50.858;4.392;2023-09-08T10:31:26;44.90;65.90
43679;DHT22;29279;50.858;4.392;2023-09-08T10:33:56;44.80;66.10
43679;DHT22;29279;50.858;4.392;2023-09-08T10:36:25;45.20;65.00
43679;DHT22;29279;50.858;4.392;2023-09-08T10:38:51;45.50;63.90
43679;DHT22;29279;50.858;4.392;2023-09-08T10:43:56;45.20;63.80
43679;DHT22;29279;50.858;4.392;2023-09-08T10:46:27;45.50;62.80
43679;DHT22;29279;50.858;4.392;2023-09-08T10:48:54;44.90;61.30
43679;DHT22;29279;50.858;4.392;2023-09-08T10:51:20;44.60;61.80
43679;DHT22;29279;50.858;4.392;2023-09-08T10:53:49;44.90;61.30
43679;DHT22;29279;50.858;4.392;2023-09-08T10:56:17;45.10;61.00
43679;DHT22;29279;50.858;4.392;2023-09-08T10:58:48;45.50;61.00
43679;DHT22;29279;50.858;4.392;2023-09-08T11:01:20;45.50;60.40
43679;DHT22;29279;50.858;4.392;2023-09-08T11:03:52;45.90;60.60
43679;DHT22;29279;50.858;4.392;2023-09-08T11:06:19;46.00;60.50
43679;DHT22;29279;50.858;4.392;2023-09-08T11:08:49;46.20;60.50
43679;DHT22;29279;50.858;4.392;2023-09-08T11:11:18;46.20;59.80
43679;DHT22;29279;50.858;4.392;2023-09-08T11:13:44;46.20;59.70
43679;DHT22;29279;50.858;4.392;2023-09-08T11:16:15;46.40;59.60
43679;DHT22;29279;50.858;4.392;2023-09-08T11:18:42;46.60;59.10
43679;DHT22;29279;50.858;4.392;2023-09-08T11:21:09;46.70;58.60
43679;DHT22;29279;50.858;4.392;2023-09-08T11:23:35;46.80;58.80
43679;DHT22;29279;50.858;4.392;2023-09-08T11:26:01;46.90;58.40
43679;DHT22;29279;50.858;4.392;2023-09-08T11:28:28;47.00;58.10
43679;DHT22;29279;50.858;4.392;2023-09-08T11:30:54;46.50;57.80
43679;DHT22;29279;50.858;4.392;2023-09-08T11:33:22;45.50;58.00
43679;DHT22;29279;50.858;4.392;2023-09-08T11:35:54;44.60;59.00
43679;DHT22;29279;50.858;4.392;2023-09-08T11:38:27;44.80;59.40
43679;DHT22;29279;50.858;4.392;2023-09-08T11:40:57;45.00;58.50
43679;DHT22;29279;50.858;4.392;2023-09-08T11:43:25;45.30;58.60
43679;DHT22;29279;50.858;4.392;2023-09-08T11:45:51;45.50;58.40
43679;DHT22;29279;50.858;4.392;2023-09-08T11:48:17;45.50;58.50
43679;DHT22;29279;50.858;4.392;2023-09-08T11:50:43;45.30;58.10
43679;DHT22;29279;50.858;4.392;2023-09-08T11:53:09;44.40;58.20
43679;DHT22;29279;50.858;4.392;2023-09-08T11:55:35;43.10;59.10
43679;DHT22;29279;50.858;4.392;2023-09-08T11:58:02;43.40;60.00
43679;DHT22;29279;50.858;4.392;2023-09-08T12:00:29;43.90;59.70
43679;DHT22;29279;50.858;4.392;2023-09-08T12:02:55;44.40;59.40
43679;DHT22;29279;50.858;4.392;2023-09-08T12:05:26;44.80;59.00
43679;DHT22;29279;50.858;4.392;2023-09-08T12:07:56;45.30;58.90
43679;DHT22;29279;50.858;4.392;2023-09-08T12:10:22;45.10;58.80
43679;DHT22;29279;50.858;4.392;2023-09-08T12:12:57;45.40;59.00
43679;DHT22;29279;50.858;4.392;2023-09-08T12:15:39;45.50;58.60
43679;DHT22;29279;50.858;4.392;2023-09-08T12:18:12;45.60;57.80
43679;DHT22;29279;50.858;4.392;2023-09-08T12:20:39;45.40;58.10
43679;DHT22;29279;50.858;4.392;2023-09-08T12:23:15;45.70;58.10
43679;DHT22;29279;50.858;4.392;2023-09-08T12:25:51;46.00;58.60
43679;DHT22;29279;50.858;4.392;2023-09-08T12:28:19;46.10;57.80
43679;DHT22;29279;50.858;4.392;2023-09-08T12:30:46;45.40;58.20
43679;DHT22;29279;50.858;4.392;2023-09-08T12:33:12;44.90;58.30
43679;DHT22;29279;50.858;4.392;2023-09-08T12:35:43;44.80;59.00
43679;DHT22;29279;50.858;4.392;2023-09-08T12:38:08;45.00;59.10
43679;DHT22;29279;50.858;4.392;2023-09-08T12:40:37;45.30;58.80
43679;DHT22;29279;50.858;4.392;2023-09-08T12:43:03;45.30;58.40
43679;DHT22;29279;50.858;4.392;2023-09-08T12:45:30;45.00;58.30
43679;DHT22;29279;50.858;4.392;2023-09-08T12:47:59;45.10;58.40
43679;DHT22;29279;50.858;4.392;2023-09-08T12:50:25;45.10;57.80
43679;DHT22;29279;50.858;4.392;2023-09-08T12:52:51;45.30;58.40
43679;DHT22;29279;50.858;4.392;2023-09-08T12:55:17;45.00;58.70
43679;DHT22;29279;50.858;4.392;2023-09-08T12:57:43;44.50;58.90
43679;DHT22;29279;50.858;4.392;2023-09-08T13:00:09;44.10;59.40
43679;DHT22;29279;50.858;4.392;2023-09-08T13:02:35;44.30;59.50
43679;DHT22;29279;50.858;4.392;2023-09-08T13:05:01;43.80;59.70
43679;DHT22;29279;50.858;4.392;2023-09-08T13:07:27;43.70;60.10
43679;DHT22;29279;50.858;4.392;2023-09-08T13:09:53;44.30;60.20
43679;DHT22;29279;50.858;4.392;2023-09-08T13:12:19;44.60;59.80
43679;DHT22;29279;50.858;4.392;2023-09-08T13:14:45;44.70;59.60
43679;DHT22;29279;50.858;4.392;2023-09-08T13:17:11;44.50;59.50
43679;DHT22;29279;50.858;4.392;2023-09-08T13:19:37;44.40;59.60
43679;DHT22;29279;50.858;4.392;2023-09-08T13:22:05;44.60;59.40
43679;DHT22;29279;50.858;4.392;2023-09-08T13:24:31;44.70;59.10
43679;DHT22;29279;50.858;4.392;2023-09-08T13:26:57;44.40;59.50
43679;DHT22;29279;50.858;4.392;2023-09-08T13:29:23;44.60;59.60
43679;DHT22;29279;50.858;4.392;2023-09-08T13:31:48;44.80;59.70
43679;DHT22;29279;50.858;4.392;2023-09-08T13:34:14;44.70;59.50
43679;DHT22;29279;50.858;4.392;2023-09-08T13:36:40;44.60;59.40
43679;DHT22;29279;50.858;4.392;2023-09-08T13:39:05;44.10;59.70
43679;DHT22;29279;50.858;4.392;2023-09-08T13:41:54;43.40;60.40
43679;DHT22;29279;50.858;4.392;2023-09-08T13:44:22;43.40;60.40
43679;DHT22;29279;50.858;4.392;2023-09-08T13:46:52;43.30;60.20
43679;DHT22;29279;50.858;4.392;2023-09-08T13:49:19;43.40;60.50
43679;DHT22;29279;50.858;4.392;2023-09-08T13:51:45;43.00;60.40
43679;DHT22;29279;50.858;4.392;2023-09-08T13:54:11;42.90;60.70
43679;DHT22;29279;50.858;4.392;2023-09-08T13:56:41;42.40;61.10
43679;DHT22;29279;50.858;4.392;2023-09-08T13:59:08;42.60;61.40
43679;DHT22;29279;50.858;4.392;2023-09-08T14:01:34;43.20;61.20
43679;DHT22;29279;50.858;4.392;2023-09-08T14:04:01;43.40;61.20
43679;DHT22;29279;50.858;4.392;2023-09-08T14:06:28;43.70;60.90
43679;DHT22;29279;50.858;4.392;2023-09-08T14:08:53;44.00;60.80
43679;DHT22;29279;50.858;4.392;2023-09-08T14:11:20;44.10;60.40
43679;DHT22;29279;50.858;4.392;2023-09-08T14:13:46;43.90;60.50
43679;DHT22;29279;50.858;4.392;2023-09-08T14:16:12;43.80;60.70
43679;DHT22;29279;50.858;4.392;2023-09-08T14:18:38;43.60;60.90
43679;DHT22;29279;50.858;4.392;2023-09-08T14:21:04;43.40;60.90
43679;DHT22;29279;50.858;4.392;2023-09-08T14:23:30;43.30;61.40
43679;DHT22;29279;50.858;4.392;2023-09-08T14:25:56;43.00;61.70
43679;DHT22;29279;50.858;4.392;2023-09-08T14:28:22;43.00;61.90
43679;DHT22;29279;50.858;4.392;2023-09-08T14:30:49;43.00;62.30
43679;DHT22;29279;50.858;4.392;2023-09-08T14:33:16;42.90;61.90
43679;DHT22;29279;50.858;4.392;2023-09-08T14:35:42;42.60;62.10
43679;DHT22;29279;50.858;4.392;2023-09-08T14:38:16;42.50;62.60
43679;DHT22;29279;50.858;4.392;2023-09-08T14:40:42;42.50;62.60
43679;DHT22;29279;50.858;4.392;2023-09-08T14:43:08;42.10;62.80
43679;DHT22;29279;50.858;4.392;2023-09-08T14:45:33;41.90;63.10
43679;DHT22;29279;50.858;4.392;2023-09-08T14:47:59;41.60;63.30
43679;DHT22;29279;50.858;4.392;2023-09-08T14:50:24;41.30;63.60
43679;DHT22;29279;50.858;4.392;2023-09-08T14:52:50;41.00;63.80
43679;DHT22;29279;50.858;4.392;2023-09-08T14:55:16;40.90;64.00
43679;DHT22;29279;50.858;4.392;2023-09-08T14:57:42;40.80;64.50
43679;DHT22;29279;50.858;4.392;2023-09-08T15:00:08;40.50;65.10
43679;DHT22;29279;50.858;4.392;2023-09-08T15:02:35;40.50;64.90
43679;DHT22;29279;50.858;4.392;2023-09-08T15:05:01;40.40;65.20
43679;DHT22;29279;50.858;4.392;2023-09-08T15:07:26;40.10;65.30
43679;DHT22;29279;50.858;4.392;2023-09-08T15:09:52;39.80;65.90
43679;DHT22;29279;50.858;4.392;2023-09-08T15:12:17;39.70;66.40
43679;DHT22;29279;50.858;4.392;2023-09-08T15:14:43;39.50;66.30
43679;DHT22;29279;50.858;4.392;2023-09-08T15:17:11;39.20;67.50
43679;DHT22;29279;50.858;4.392;2023-09-08T15:19:38;39.00;67.60
43679;DHT22;29279;50.858;4.392;2023-09-08T15:22:03;38.90;67.30
43679;DHT22;29279;50.858;4.392;2023-09-08T15:24:29;38.80;67.60
43679;DHT22;29279;50.858;4.392;2023-09-08T15:26:54;38.60;68.50
43679;DHT22;29279;50.858;4.392;2023-09-08T15:29:22;38.30;67.90
43679;DHT22;29279;50.858;4.392;2023-09-08T15:31:48;38.20;68.30
43679;DHT22;29279;50.858;4.392;2023-09-08T15:34:14;38.10;68.60
43679;DHT22;29279;50.858;4.392;2023-09-08T15:36:39;38.00;69.00